Latest Weather Observations for Yarrawonga

IDV60801

Issued at 7:32 am EST Saturday 25 June 2016 (issued every 30 minutes, with the page automatically refreshed every 10 minutes)

About weather observations | Map of weather stations | Latest weather observations for VIC | Other Formats
Station Details ID: 081124 Name: YARRAWONGA Lat: -36.03 Lon: 146.03 Height: 128.9 m
Data from the previous 72 hours. | See also: Recent months at Yarrawonga
Date/Time
EST
Temp
°C
App
Temp
°C
Dew
Point
°C
Rel
Hum
%
Delta-T
°C
Wind Press
QNH
hPa
Press
MSL
hPa
Rain since
9am
mm
Dir  Spd
km/h
Gust
km/h
Spd
kts
Gust
kts
25/07:30am -0.1 -3.3 -0.4 98 0.1 W 6 7 3 4 1022.3 1022.6 3.4
25/07:00am 0.3 -2.1 0.0 98 0.1 W 2 6 1 3 1021.9 1022.1 3.4
25/06:30am 0.5 -2.8 0.1 97 0.1 W 7 9 4 5 1021.4 1021.6 3.4
25/06:00am 0.9 -2.7 0.5 97 0.1 W 9 11 5 6 1021.1 1021.3 3.4
25/05:30am 1.2 -2.8 0.6 96 0.2 WSW 11 13 6 7 1020.8 1021.0 3.4
25/05:00am 1.6 -3.1 1.0 96 0.2 W 15 19 8 10 1020.5 1020.7 3.4
25/04:30am 1.6 -2.7 1.0 96 0.2 WSW 13 17 7 9 1020.4 1020.6 3.4
25/04:00am 1.8 -3.2 1.2 96 0.2 WSW 17 19 9 10 1020.1 1020.3 3.4
25/03:30am 1.7 -3.0 1.1 96 0.2 W 15 19 8 10 1020.0 1020.2 3.4
25/03:00am 1.9 -2.4 1.2 95 0.3 WSW 13 17 7 9 1020.0 1020.2 3.4
25/02:30am 1.7 -2.6 1.1 96 0.2 WSW 13 15 7 8 1019.9 1020.1 3.4
25/02:00am 1.9 -2.0 1.2 95 0.3 WSW 11 13 6 7 1019.8 1020.0 3.4
25/01:30am 1.9 -2.0 1.2 95 0.3 WSW 11 15 6 8 1019.5 1019.7 3.4
25/01:00am 2.0 -0.9 1.3 95 0.3 W 6 7 3 4 1019.1 1019.3 3.2
25/12:30am 2.5 -0.6 1.5 93 0.4 WSW 7 11 4 6 1018.8 1019.0 3.2
25/12:00am 2.9 -0.9 1.9 93 0.4 W 11 13 6 7 1018.5 1018.7 3.2
 
Date/Time
EST
Temp
°C
App
Temp
°C
Dew
Point
°C
Rel
Hum
%
Delta-T
°C
Wind Press
QNH
hPa
Press
MSL
hPa
Rain since
9am
mm
Dir  Spd
km/h
Gust
km/h
Spd
kts
Gust
kts
24/11:30pm 3.3 -0.8 2.1 92 0.5 W 13 19 7 10 1018.2 1018.4 3.2
24/11:00pm 3.4 -0.7 2.2 92 0.5 W 13 17 7 9 1018.0 1018.2 3.2
24/10:30pm 3.7 -1.2 2.2 90 0.6 WSW 17 22 9 12 1017.6 1017.8 3.2
24/10:00pm 3.7 0.0 2.4 91 0.5 W 11 15 6 8 1017.4 1017.6 3.2
24/09:30pm 3.9 -0.9 2.7 92 0.5 W 17 22 9 12 1016.9 1017.1 3.2
24/09:00pm 4.0 -0.8 2.8 92 0.5 W 17 20 9 11 1016.4 1016.6 3.2
24/08:30pm 4.1 0.1 3.1 93 0.4 W 13 17 7 9 1015.7 1015.9 3.2
24/08:00pm 4.6 -1.0 3.3 91 0.5 W 22 28 12 15 1015.1 1015.2 3.2
24/07:30pm 4.7 -0.9 3.2 90 0.6 W 22 28 12 15 1014.6 1014.8 3.2
24/07:00pm 5.0 -0.6 3.5 90 0.6 W 22 28 12 15 1014.0 1014.2 3.2
24/06:30pm 4.9 -0.1 3.7 92 0.5 W 19 24 10 13 1013.4 1013.6 3.2
24/06:00pm 4.8 -0.2 3.8 93 0.4 W 19 24 10 13 1012.9 1013.1 3.2
24/05:30pm 4.8 -0.2 3.6 92 0.5 W 19 24 10 13 1012.1 1012.3 3.2
24/05:00pm 4.8 -0.2 3.5 91 0.5 W 19 24 10 13 1011.4 1011.6 3.0
24/04:30pm 4.9 -0.2 4.0 94 0.4 SW 20 30 11 16 1010.7 1010.9 2.4
24/04:06pm 5.0 -2.4 3.8 92 0.5 WSW 32 70 17 38 1010.9 1011.1 1.8
24/04:05pm 5.5 -1.5 4.0 90 0.6 WSW 30 70 16 38 1010.9 1011.1 1.8
24/04:00pm 6.4 1.5 5.0 91 0.6 WSW 20 24 11 13 1010.2 1010.4 1.8
24/03:30pm 6.1 -0.8 4.7 91 0.6 WSW 30 43 16 23 1009.4 1009.6 1.0
24/03:06pm 8.1 1.4 5.7 85 1.1 WSW 30 48 16 26 1008.6 1008.7 0.4
24/03:00pm 7.9 0.2 5.4 84 1.1 WSW 35 48 19 26 1008.6 1008.7 0.4
24/02:30pm 8.4 0.5 4.6 77 1.7 WSW 35 48 19 26 1007.9 1008.0 0.4
24/02:00pm 8.5 0.8 5.4 81 1.4 WSW 35 52 19 28 1007.8 1007.9 0.4
24/01:30pm 8.1 -0.1 5.0 81 1.4 WSW 37 50 20 27 1007.5 1007.6 0.0
24/01:00pm 7.5 1.5 5.3 86 1.0 W 26 37 14 20 1007.2 1007.3 0.0
24/12:30pm 7.0 0.6 5.3 89 0.8 W 28 37 15 20 1007.1 1007.2 0.0
24/12:00pm 6.9 1.3 5.5 91 0.6 W 24 35 13 19 1007.0 1007.1 0.0
24/11:30am 7.1 1.6 5.7 91 0.6 W 24 39 13 21 1006.7 1006.9 0.0
24/11:00am 7.2 0.5 5.5 89 0.8 W 30 39 16 21 1006.6 1006.8 0.0
24/10:30am 7.4 1.4 5.4 87 0.9 W 26 41 14 22 1006.3 1006.5 0.0
24/10:00am 7.1 1.1 5.3 88 0.8 WNW 26 43 14 23 1006.0 1006.2 0.0
24/09:30am 7.1 1.4 4.9 86 1.0 W 24 37 13 20 1005.6 1005.8 0.0
24/09:00am 7.1 2.2 5.1 87 0.9 WNW 20 32 11 17 1005.3 1005.5 9.0
24/08:30am 7.0 0.9 5.0 87 0.9 WNW 26 35 14 19 1004.9 1005.1 9.0
24/08:00am 6.8 1.9 5.1 89 0.8 W 20 32 11 17 1004.5 1004.7 9.0
24/07:30am 6.9 0.5 5.1 88 0.8 WNW 28 39 15 21 1003.9 1004.1 9.0
24/07:00am 6.8 2.7 6.1 95 0.3 WNW 17 26 9 14 1003.5 1003.7 8.8
24/06:30am 7.0 3.7 6.6 97 0.2 NW 13 24 7 13 1003.3 1003.5 8.8
24/06:00am 7.2 4.0 6.8 97 0.2 NW 13 22 7 12 1002.7 1002.9 8.4
24/05:30am 7.5 4.4 7.1 97 0.2 NW 13 17 7 9 1002.6 1002.8 7.8
24/05:00am 7.3 4.5 7.0 98 0.1 NW 11 17 6 9 1002.6 1002.8 7.8
24/04:30am 7.3 3.0 6.9 97 0.2 NW 19 24 10 13 1002.6 1002.8 7.8
24/04:00am 7.4 3.4 6.7 95 0.3 NW 17 24 9 13 1002.8 1003.0 7.0
24/03:30am 7.6 3.6 6.5 93 0.5 NW 17 24 9 13 1002.8 1003.0 7.0
24/03:00am 7.6 4.3 6.4 92 0.6 NW 13 17 7 9 1002.7 1002.9 7.0
24/02:30am 7.5 4.9 6.3 92 0.5 NW 9 13 5 7 1002.6 1002.8 7.0
24/02:00am 7.6 5.1 6.5 93 0.5 NW 9 15 5 8 1002.6 1002.8 7.0
24/01:30am 7.5 5.1 6.8 95 0.3 NW 9 15 5 8 1002.6 1002.8 7.0
24/01:00am 7.5 5.1 6.9 96 0.3 NW 9 13 5 7 1002.5 1002.6 7.0
24/12:30am 7.5 5.1 6.9 96 0.3 NNE 9 15 5 8 1001.3 1001.4 7.0
24/12:00am 7.4 5.5 6.8 96 0.3 NW 6 7 3 4 1002.5 1002.6 7.0
 
Date/Time
EST
Temp
°C
App
Temp
°C
Dew
Point
°C
Rel
Hum
%
Delta-T
°C
Wind Press
QNH
hPa
Press
MSL
hPa
Rain since
9am
mm
Dir  Spd
km/h
Gust
km/h
Spd
kts
Gust
kts
23/11:30pm 7.5 4.7 7.1 97 0.2 WNW 11 15 6 8 1003.2 1003.4 7.0
23/11:00pm 7.7 2.1 7.3 97 0.2 W 26 33 14 18 1003.4 1003.6 6.4
23/10:30pm 7.4 1.4 7.1 98 0.1 W 28 35 15 19 1002.9 1003.1 4.8
23/10:17pm 7.2 0.2 6.0 92 0.5 W 32 50 17 27 1002.3 1002.4 1.6
23/10:12pm 8.5 2.0 6.5 87 0.9 NW 30 50 16 27 1002.8 1003.0 0.4
23/10:00pm 10.6 6.1 10.0 96 0.3 NNW 24 33 13 18 1001.3 1001.4 0.2
23/09:30pm 10.6 6.5 10.0 96 0.3 N 22 32 12 17 1001.4 1001.5 0.2
23/09:00pm 10.4 5.9 9.9 97 0.3 N 24 33 13 18 1001.3 1001.4 0.2
23/08:30pm 10.6 6.1 10.0 96 0.3 N 24 33 13 18 1001.6 1001.7 0.2
23/08:00pm 10.6 6.5 10.0 96 0.3 N 22 30 12 16 1001.9 1002.0 0.2
23/07:30pm 10.9 6.8 10.1 95 0.4 N 22 30 12 16 1002.4 1002.5 0.2
23/07:00pm 11.0 7.3 10.1 94 0.5 N 20 32 11 17 1002.1 1002.2 0.2
23/06:30pm 10.9 7.2 10.1 95 0.4 N 20 28 11 15 1002.5 1002.6 0.2
23/06:00pm 11.2 8.1 10.3 94 0.5 N 17 20 9 11 1003.0 1003.2 0.0
23/05:30pm 11.1 8.4 10.2 94 0.5 N 15 20 8 11 1003.1 1003.3 0.0
23/05:00pm 11.4 7.8 10.0 91 0.7 N 19 28 10 15 1003.2 1003.4 0.0
23/04:30pm 11.5 7.8 10.1 91 0.7 N 20 28 11 15 1003.3 1003.5 0.0
23/04:00pm 11.7 7.1 9.8 88 1.0 N 24 37 13 20 1003.4 1003.6 0.0
23/03:30pm 12.2 7.7 9.9 86 1.2 N 24 33 13 18 1003.7 1003.9 0.0
23/03:00pm 12.6 7.4 8.9 78 1.9 N 26 37 14 20 1003.7 1003.9 0.0
23/02:30pm 12.4 7.4 9.6 83 1.4 N 26 37 14 20 1004.1 1004.3 0.0
23/02:00pm 12.6 7.2 9.4 81 1.6 N 28 37 15 20 1004.6 1004.8 0.0
23/01:30pm 12.4 7.4 9.6 83 1.4 N 26 37 14 20 1005.3 1005.5 0.0
23/01:00pm 12.4 6.5 9.1 80 1.7 N 30 41 16 22 1006.0 1006.2 0.0
23/12:30pm 12.7 7.8 9.9 83 1.4 N 26 35 14 19 1006.5 1006.7 0.0
23/12:00pm 12.7 8.2 9.9 83 1.4 N 24 30 13 16 1007.3 1007.4 0.0
23/11:30am 12.6 8.7 9.6 82 1.5 N 20 28 11 15 1007.9 1008.0 0.0
23/11:00am 12.1 8.4 9.3 83 1.4 N 19 24 10 13 1008.4 1008.5 0.0
23/10:30am 11.6 8.1 8.8 83 1.4 NNW 17 24 9 13 1008.8 1008.9 0.0
23/10:00am 11.1 7.6 8.8 86 1.1 NNW 17 20 9 11 1009.1 1009.3 0.0
23/09:30am 10.7 8.0 8.8 88 0.9 NNW 13 19 7 10 1009.2 1009.4 0.0
23/09:00am 10.3 6.4 8.6 89 0.8 N 19 24 10 13 1009.1 1009.3 0.0
23/08:30am 10.0 6.4 8.3 89 0.8 N 17 22 9 12 1009.1 1009.3 0.0
23/08:00am 9.6 6.0 8.4 92 0.6 N 17 20 9 11 1009.2 1009.4 0.0
23/07:30am 9.3 6.0 8.2 93 0.5 N 15 19 8 10 1009.1 1009.3 0.0
23/07:00am 9.5 6.3 8.4 93 0.5 N 15 20 8 11 1009.3 1009.5 0.0
23/06:30am 9.5 6.3 8.4 93 0.5 N 15 19 8 10 1009.3 1009.5 0.0
23/06:00am 9.5 6.3 8.4 93 0.5 N 15 20 8 11 1009.2 1009.4 0.0
23/05:30am 9.5 6.3 8.4 93 0.5 N 15 20 8 11 1009.1 1009.3 0.0
23/05:00am 9.6 6.4 8.4 92 0.6 N 15 19 8 10 1009.3 1009.5 0.0
23/04:30am 9.7 6.1 8.3 91 0.7 N 17 20 9 11 1009.5 1009.7 0.0
23/04:00am 9.8 6.6 8.4 91 0.7 NNW 15 20 8 11 1009.8 1010.0 0.0
23/03:30am 9.8 7.0 8.4 91 0.7 NNW 13 17 7 9 1010.0 1010.2 0.0
23/03:00am 10.0 6.8 8.4 90 0.8 NNW 15 19 8 10 1010.2 1010.4 0.0
23/02:30am 10.0 6.8 8.4 90 0.8 NNW 15 19 8 10 1010.4 1010.6 0.0
23/02:00am 10.1 6.9 8.4 89 0.8 NNW 15 24 8 13 1010.6 1010.8 0.0
23/01:30am 10.2 7.0 8.5 89 0.8 NNW 15 19 8 10 1010.8 1011.0 0.0
23/01:00am 10.2 7.0 8.6 90 0.8 NNW 15 19 8 10 1011.1 1011.3 0.0
23/12:30am 10.2 6.6 8.5 89 0.8 NNW 17 20 9 11 1011.3 1011.5 0.0
23/12:00am 10.2 6.7 8.6 90 0.8 NNW 17 24 9 13 1011.3 1011.5 0.0
 
Date/Time
EST
Temp
°C
App
Temp
°C
Dew
Point
°C
Rel
Hum
%
Delta-T
°C
Wind Press
QNH
hPa
Press
MSL
hPa
Rain since
9am
mm
Dir  Spd
km/h
Gust
km/h
Spd
kts
Gust
kts
22/11:30pm 10.3 6.4 8.6 89 0.8 NNW 19 24 10 13 1011.4 1011.6 0.0
22/11:00pm 10.5 8.2 8.9 90 0.8 NNW 11 15 6 8 1011.4 1011.6 0.0
22/10:30pm 10.6 7.9 9.0 90 0.8 NNW 13 19 7 10 1011.3 1011.5 0.0
22/10:00pm 10.7 9.2 9.1 90 0.8 NNW 7 11 4 6 1011.5 1011.7 0.0
22/09:30pm 10.8 8.9 9.2 90 0.8 NNW 9 13 5 7 1011.5 1011.7 0.0
22/09:00pm 10.7 8.0 9.0 89 0.8 NNW 13 19 7 10 1011.6 1011.8 0.0
22/08:30pm 10.1 7.7 8.7 91 0.7 NNW 11 13 6 7 1011.4 1011.6 0.0
22/08:00pm 10.9 8.5 8.7 86 1.1 NNW 11 15 6 8 1011.1 1011.3 0.0
22/07:30pm 11.7 8.5 8.4 80 1.6 NW 15 19 8 10 1011.0 1011.2 0.0
22/07:00pm 11.8 8.6 8.5 80 1.6 NW 15 20 8 11 1010.9 1011.1 0.0
22/06:30pm 10.9 8.8 8.3 84 1.3 NNW 9 13 5 7 1010.5 1010.7 0.0
22/06:00pm 11.4 8.6 8.4 82 1.5 NW 13 19 7 10 1010.0 1010.2 0.0
22/05:30pm 10.2 7.9 7.6 84 1.3 NNW 9 9 5 5 1009.5 1009.7 0.0
22/05:00pm 12.0 9.3 7.5 74 2.2 WNW 11 20 6 11 1009.4 1009.6 0.0
22/04:30pm 12.9 10.0 8.0 72 2.4 WNW 13 20 7 11 1009.0 1009.1 0.0
22/04:00pm 13.4 9.7 7.8 69 2.8 W 17 24 9 13 1008.6 1008.7 0.0
22/03:30pm 13.3 9.7 8.4 72 2.5 W 17 24 9 13 1008.5 1008.6 0.0
22/03:00pm 13.7 9.8 8.7 72 2.5 W 19 26 10 14 1008.4 1008.5 0.0
22/02:30pm 13.4 9.3 8.5 72 2.5 W 20 30 11 16 1008.0 1008.1 0.0
22/02:00pm 13.1 7.8 8.4 73 2.4 W 26 35 14 19 1007.9 1008.0 0.0
22/01:30pm 13.4 9.0 9.1 75 2.2 W 22 35 12 19 1007.8 1007.9 0.0
22/01:00pm 13.2 8.8 8.9 75 2.2 W 22 33 12 18 1008.0 1008.1 0.0
22/12:30pm 13.0 9.1 9.4 79 1.8 W 20 28 11 15 1008.1 1008.2 0.0
22/12:00pm 12.4 8.7 9.6 83 1.4 W 19 26 10 14 1008.2 1008.3 0.0
22/11:30am 12.1 7.0 9.3 83 1.4 W 26 35 14 19 1008.5 1008.6 0.0
22/11:00am 12.0 7.4 9.6 85 1.2 W 24 35 13 19 1008.3 1008.4 0.0
22/10:30am 10.9 6.1 8.7 86 1.1 W 24 33 13 18 1008.0 1008.1 0.0
22/10:00am 10.1 4.8 8.4 89 0.8 W 26 35 14 19 1007.6 1007.7 0.0
22/09:30am 10.5 6.2 9.3 92 0.6 W 22 37 12 20 1007.1 1007.2 0.0
22/09:00am 10.1 5.3 8.7 91 0.7 W 24 33 13 18 1006.2 1006.4 6.0
22/08:30am 10.4 6.0 9.0 91 0.7 WNW 22 35 12 19 1005.8 1006.0 6.0
22/08:00am 10.5 6.5 9.1 91 0.7 W 20 32 11 17 1005.2 1005.4 6.0

Other Formats:

Comma delimited format used in spreadsheet applications
http://www.bom.gov.au/fwo/IDV60801/IDV60801.94862.axf

JavaScript Object Notation format (JSON) in row-major order
http://www.bom.gov.au/fwo/IDV60801/IDV60801.94862.json